• Join FlightAware (Why Join?)
  • Login
  • US Flag 
04:19AM EDT


 

Airport Tracker/Info


-or-


 

Live Flight TrackerFlight Track Log ✈ GJS3707 ✈ 21-Jul-2013 ✈ KORD - KBOI

Flight Track Log - Related Links

Times and Time Zones

All times are in EDT time to prevent confusion due to time zone crossing. See the GJS3707 flight status page for this flight to view local times or setup timezone preferences in your user account.

Time Position Orientation Groundspeed Altitude Reporting Facility
EDT Latitude Longitude Course Direction KTS MPH feet Rate Location/Type
10:56AM 41.9667 -88.0000 270° West 200 230 3,000  Level Chicago TRACON
10:57AM 41.9667 -88.0833 270° West 237 273 5,100 1,860 Climbing Chicago TRACON
10:58AM 41.9667 -88.4631 270° West  Level FlightAware Approximate
10:58AM 41.9867 -88.1525 291° West 248 285 6,600  Level Chicago Center
10:59AM 41.9668 -88.6039 270° West  Level FlightAware Approximate
10:59AM 42.0378 -88.2497 305° West 269 310 9,700  Level Chicago Center
11:00AM 41.9667 -88.7447 270° West  Level FlightAware Approximate
11:00AM 42.0542 -88.3494 283° West 289 333 11,900  Level Chicago Center
11:01AM 41.9668 -88.8855 270° West  Level FlightAware Approximate
11:01AM 42.0506 -88.4619 268° West 303 349 13,200  Level Chicago Center
11:02AM 42.0461 -88.5844 267° West 324 373 15,100 1,980 Climbing Chicago Center
11:03AM 42.0456 -88.7117 270° West 339 390 17,300 1,740 Climbing Chicago Center
11:04AM 42.0467 -88.8669 271° West 347 399 18,700 1,380 Climbing Chicago Center
11:05AM 42.0481 -89.0025 271° West 360 414 20,200 1,380 Climbing Chicago Center
11:06AM 42.0517 -89.1392 272° West 366 421 21,600 1,380 Climbing Chicago Center
11:07AM 42.0589 -89.2758 274° West 372 428 23,100 1,440 Climbing Chicago Center
11:08AM 42.0636 -89.4131 273° West 372 428 24,600 1,500 Climbing Chicago Center
11:09AM 42.0722 -89.5767 274° West 375 432 26,200 1,500 Climbing Chicago Center
11:10AM 42.0794 -89.7161 274° West 373 429 27,700 1,080 Climbing Chicago Center
11:11AM 42.0839 -89.8547 273° West 372 428 28,500 720 Climbing Chicago Center
11:12AM 42.0894 -89.9922 273° West 377 434 29,200 660 Climbing Chicago Center
11:13AM 42.0947 -90.1406 273° West 393 452 29,900 720 Climbing Chicago Center
11:14AM 42.1042 -90.3150 274° West 393 452 30,700 720 Climbing Chicago Center
11:15AM 42.1100 -90.4625 273° West 396 456 31,400 660 Climbing Chicago Center
11:16AM 42.1189 -90.6106 275° West 400 460 32,100 660 Climbing Chicago Center
11:17AM 42.1264 -90.7603 274° West 403 464 32,800 720 Climbing Chicago Center
11:18AM 42.1325 -90.9106 273° West 403 464 33,700 840 Climbing Chicago Center
11:19AM 42.1397 -91.0586 274° West 401 461 34,600 960 Climbing Chicago Center
11:20AM 42.1550 -91.2342 277° West 395 455 35,700 660 Climbing Chicago Center
11:21AM 42.2050 -91.3608 298° West 387 445 36,000 120 Climbing Chicago Center
11:22AM 42.2658 -91.4914 302° West 408 470 36,000  Level Chicago Center
11:23AM 42.3264 -91.6222 302° West 411 473 36,000  Level Chicago Center
11:25AM 42.3853 -91.7508 302° West 406 467 36,000  Level Chicago Center
11:26AM 42.4433 -91.8772 302° West 399 459 36,000  Level Chicago Center
11:27AM 42.5136 -92.0314 302° West 398 458 36,000  Level Chicago Center
11:28AM 42.5722 -92.1589 302° West 399 459 36,000  Level Chicago Center
11:29AM 42.6286 -92.2850 301° West 394 453 36,000  Level Chicago Center
11:30AM 42.6869 -92.4136 302° West 400 460 36,000  Level Chicago Center
11:31AM 42.7442 -92.5411 301° West 398 458 36,100  Climbing Chicago Center
11:32AM 42.8142 -92.6972 301° West 397 457 36,000 -60 Descending Chicago Center
11:33AM 42.8689 -92.8217 301° West 394 453 36,000  Level Chicago Center
11:34AM 42.9272 -92.9506 302° West 399 459 36,000  Level Chicago Center
11:35AM 42.9833 -93.0772 301° West 395 455 36,000  Level Chicago Center
11:36AM 43.0383 -93.2028 301° West 390 449 36,000  Level Chicago Center
11:37AM 43.1014 -93.3581 299° West 390 449 36,000  Level Chicago Center
11:38AM 43.1222 -93.5008 281° West 390 449 36,000  Level Chicago Center
11:39AM 43.1492 -93.6417 285° West 386 444 36,000  Level Chicago Center
11:40AM 43.1739 -93.7847 283° West 387 445 36,000  Level Chicago Center
11:41AM 43.1986 -93.9267 283° West 387 445 36,000  Level Chicago Center
11:42AM 43.2297 -94.1275 282° West 388 447 36,000  Level Minneapolis Center
11:43AM 43.2611 -94.2953 284° West 386 444 36,000  Level Minneapolis Center
11:45AM 43.2858 -94.4381 283° West 385 443 36,000  Level Minneapolis Center
11:46AM 43.3089 -94.5822 282° West 386 444 36,000  Level Minneapolis Center
11:47AM 43.3325 -94.7250 283° West 386 444 36,000  Level Minneapolis Center
11:48AM 43.3564 -94.8694 283° West 386 444 36,000  Level Minneapolis Center
11:49AM 43.3797 -95.0108 283° West 382 440 36,000  Level Minneapolis Center
11:50AM 43.4069 -95.1836 282° West 385 443 36,000  Level Minneapolis Center
11:51AM 43.4303 -95.3275 283° West 386 444 36,000  Level Minneapolis Center
11:52AM 43.4528 -95.4711 282° West 385 443 36,000  Level Minneapolis Center
11:53AM 43.4797 -95.6456 282° West 388 447 36,000  Level Minneapolis Center
11:54AM 43.5022 -95.7889 282° West 384 442 36,000  Level Minneapolis Center
11:55AM 43.5242 -95.9347 282° West 386 444 36,000  Level Minneapolis Center
11:56AM 43.5508 -96.1092 282° West 387 445 36,000  Level Minneapolis Center
11:57AM 43.5725 -96.2561 282° West 389 448 36,000  Level Minneapolis Center
11:58AM 43.5947 -96.4025 282° West 389 448 36,000  Level Minneapolis Center
11:59AM 43.6153 -96.5506 281° West 392 451 36,000  Level Minneapolis Center
12:00PM 43.6411 -96.7278 281° West 392 451 36,000  Level Minneapolis Center
12:01PM 43.6572 -96.8764 279° West 391 450 36,000  Level Minneapolis Center
12:02PM 43.6681 -97.0275 276° West 394 453 36,000  Level Minneapolis Center
12:03PM 43.6808 -97.1789 277° West 396 456 36,000  Level Minneapolis Center
12:04PM 43.6928 -97.3319 276° West 399 459 36,000  Level Minneapolis Center
12:05PM 43.7033 -97.4842 276° West 398 458 36,000  Level Minneapolis Center
12:06PM 43.7150 -97.6378 276° West 401 461 36,000  Level Minneapolis Center
12:08PM 43.7283 -97.8225 276° West 403 464 36,000  Level Minneapolis Center
12:09PM 43.7392 -97.9769 276° West 404 465 36,000  Level Minneapolis Center
12:10PM 43.7506 -98.1308 276° West 403 464 36,000  Level Minneapolis Center
12:11PM 43.7600 -98.2861 275° West 405 466 36,000  Level Minneapolis Center
12:12PM 43.7700 -98.4428 275° West 409 471 36,000  Level Minneapolis Center
12:13PM 43.7800 -98.5975 275° West 405 466 36,000  Level Minneapolis Center
12:14PM 43.7922 -98.7828 275° West 408 470 36,000  Level Minneapolis Center
12:15PM 43.8019 -98.9364 275° West 402 463 36,000  Level Minneapolis Center
12:16PM 43.8117 -99.0917 275° West 404 465 36,000  Level Minneapolis Center
12:17PM 43.8214 -99.2461 275° West 403 464 36,000  Level Minneapolis Center
12:18PM 43.8300 -99.4033 274° West 406 467 36,000  Level Minneapolis Center
12:19PM 43.8381 -99.5611 274° West 407 468 36,000  Level Minneapolis Center
12:20PM 43.8475 -99.7547 274° West 413 475 36,000  Level Minneapolis Center
12:21PM 43.8569 -99.9119 275° West 410 472 36,000  Level Minneapolis Center
12:22PM 43.8647 -100.0675 274° West 407 468 36,000  Level Minneapolis Center
12:23PM 43.8717 -100.2258 274° West 408 470 36,000  Level Minneapolis Center
12:24PM 43.8797 -100.3831 274° West 408 470 36,000  Level Minneapolis Center
12:25PM 43.8875 -100.5419 274° West 411 473 36,000  Level Minneapolis Center
12:26PM 43.8944 -100.7000 274° West 412 474 36,000  Level Minneapolis Center
12:27PM 43.9036 -100.8931 274° West 415 478 36,000  Level Minneapolis Center
12:28PM 43.9097 -101.0522 273° West 414 476 36,000  Level Minneapolis Center
12:29PM 43.9164 -101.2133 273° West 417 480 36,000  Level Minneapolis Center
12:30PM 43.9225 -101.3739 273° West 417 480 36,000  Level Minneapolis Center
12:31PM 43.9264 -101.5331 272° West 415 478 36,000  Level Minneapolis Center
12:32PM 43.9317 -101.6933 273° West 415 478 36,000  Level Minneapolis Center
12:33PM 43.9383 -101.8878 273° West 417 480 36,000  Level Minneapolis Center
12:34PM 43.9444 -102.0511 273° West 420 483 36,000  Level Minneapolis Center
12:35PM 43.9489 -102.2147 272° West 422 486 36,000  Level Minneapolis Center
12:37PM 43.9550 -102.3789 273° West 424 488 36,000  Level Minneapolis Center
12:38PM 43.9586 -102.5414 272° West 424 488 36,000  Level Minneapolis Center
12:39PM 43.9633 -102.7058 272° West 424 488 36,000  Level Minneapolis Center
12:40PM 43.9703 -102.9031 273° West 425 489 36,000  Level Minneapolis Center
12:41PM 43.9736 -103.0675 272° West 426 490 36,000  Level Minneapolis Center
12:42PM 43.9797 -103.2333 273° West 428 493 36,000  Level Minneapolis Center
12:43PM 43.9828 -103.3983 272° West 428 493 36,000  Level Minneapolis Center
12:44PM 43.9872 -103.5456 272° West 428 493 36,000  Level Salt Lake Center
12:44PM 43.9878 -103.6244 271° West 423 487 36,000  Level Denver Center
12:45PM 43.9911 -103.8075 272° West 426 490 36,000  Level Denver Center
12:46PM 43.9939 -103.9647 271° West 427 491 36,000  Level Denver Center
12:47PM 43.9964 -104.1469 271° West 424 488 36,000  Level Denver Center
12:48PM 43.9972 -104.3022 270° West 422 486 36,000  Level Denver Center
12:49PM 43.9992 -104.4814 271° West 419 482 36,000  Level Denver Center
12:50PM 44.0011 -104.6364 271° West 420 483 36,000  Level Denver Center
12:51PM 44.0022 -104.8175 271° West 421 484 36,000  Level Denver Center
12:52PM 44.0031 -104.9708 270° West 418 481 36,000  Level Denver Center
12:53PM 44.0042 -105.1239 271° West 417 480 36,000  Level Denver Center
12:54PM 44.0042 -105.3028 270° West 416 479 36,000  Level Denver Center
12:55PM 44.0044 -105.4547 270° West 414 476 36,000  Level Denver Center
12:57PM 44.0053 -105.6281 270° West 407 468 36,000  Level Denver Center
12:58PM 44.0050 -105.7794 270° West 409 471 36,000  Level Denver Center
12:59PM 44.0031 -105.9789 269° West 407 468 36,000  Level Denver Center
01:00PM 44.0036 -106.1531 270° West 406 467 36,000  Level Denver Center
01:01PM 44.0017 -106.3033 269° West 407 468 36,000  Level Denver Center
01:02PM 44.0008 -106.4764 270° West 402 463 36,000  Level Denver Center
01:03PM 44.0081 -106.6228 274° West 398 458 36,000  Level Denver Center
01:04PM 44.0128 -106.7703 273° West 401 461 36,000  Level Denver Center
01:05PM 44.0194 -106.9283 273° West 395 455 36,000  Level Denver Center
01:06PM 44.0244 -107.0814 273° West 395 455 36,000  Level Denver Center
01:07PM 44.0303 -107.2653 273° West 396 456 36,000  Level Denver Center
01:08PM 44.0356 -107.4181 273° West 396 456 36,000  Level Denver Center
01:09PM 44.0394 -107.5717 272° West 396 456 36,000  Level Denver Center
01:10PM 44.0450 -107.7247 273° West 397 457 36,000  Level Denver Center
01:11PM 44.0494 -107.8769 272° West 394 453 36,000  Level Denver Center
01:13PM 44.0553 -108.0947 272° West 400 460 36,000  Level Salt Lake Center
01:14PM 44.0581 -108.2481 271° West 398 458 36,000  Level Salt Lake Center
01:15PM 44.0617 -108.4014 272° West 396 456 36,000  Level Salt Lake Center
01:16PM 44.0664 -108.5542 273° West 396 456 36,000  Level Salt Lake Center
01:17PM 44.0692 -108.7069 272° West 396 456 36,000  Level Salt Lake Center
01:18PM 44.0739 -108.8883 272° West 392 451 36,000  Level Salt Lake Center
01:19PM 44.0769 -109.0408 272° West 394 453 36,000  Level Salt Lake Center
01:20PM 44.0786 -109.1947 271° West 397 457 36,000  Level Salt Lake Center
01:21PM 44.0814 -109.3464 272° West 394 453 36,000  Level Salt Lake Center
01:22PM 44.0839 -109.5189 271° West 390 449 36,000  Level Salt Lake Center
01:23PM 44.0867 -109.6675 272° West 397 457 36,000  Level Salt Lake Center
01:24PM 44.0875 -109.8142 271° West 397 457 36,000  Level Salt Lake Center
01:26PM 44.0911 -110.1339 271° West 397 457 36,000  Level Salt Lake Center
01:27PM 44.0917 -110.3058 270° West 398 458 36,000  Level Salt Lake Center
01:28PM 44.0928 -110.4522 271° West 396 456 36,000  Level Salt Lake Center
01:29PM 44.0928 -110.6247 270° West 398 458 36,000  Level Salt Lake Center
01:30PM 44.0933 -110.7725 270° West 398 458 36,000  Level Salt Lake Center
01:31PM 44.0936 -110.9456 270° West 400 460 36,000  Level Salt Lake Center
01:32PM 44.0939 -111.0939 270° West 399 459 36,000  Level Salt Lake Center
01:33PM 44.0939 -111.2417 270° West 398 458 36,000  Level Salt Lake Center
01:34PM 44.0942 -111.4172 270° West 402 463 36,000  Level Salt Lake Center
01:35PM 44.0931 -111.5669 269° West 402 463 36,000  Level Salt Lake Center
01:36PM 44.0925 -111.7425 270° West 404 465 36,000  Level Salt Lake Center
01:37PM 44.0917 -111.8931 270° West 404 465 36,000  Level Salt Lake Center
01:38PM 44.0908 -112.0689 270° West 405 466 36,000  Level Salt Lake Center
01:39PM 44.0867 -112.2172 268° West 402 463 36,000  Level Salt Lake Center
01:40PM 44.0672 -112.3908 261° West 407 468 36,000  Level Salt Lake Center
01:41PM 44.0517 -112.5403 262° West 407 468 36,000  Level Salt Lake Center
01:43PM 44.0331 -112.6886 260° West 406 467 36,000  Level Salt Lake Center
01:44PM 44.0131 -112.8603 261° West 403 464 36,000  Level Salt Lake Center
01:45PM 43.9953 -113.0072 261° West 403 464 36,000  Level Salt Lake Center
01:46PM 43.9744 -113.1794 261° West 405 466 36,000  Level Salt Lake Center
01:47PM 43.9572 -113.3278 261° West 407 468 36,000  Level Salt Lake Center
01:48PM 43.9356 -113.4997 260° West 405 466 36,000  Level Salt Lake Center
01:49PM 43.9169 -113.6503 260° West 411 473 36,000  Level Salt Lake Center
01:50PM 43.8950 -113.8219 260° West 406 467 36,000  Level Salt Lake Center
01:51PM 43.8753 -113.9819 260° West 403 464 36,000 -540 Level Salt Lake Center
01:52PM 43.8378 -114.1244 250° West 408 470 35,000 -1,260 Descending Salt Lake Center
01:53PM 43.8036 -114.2658 252° West 403 464 33,500 -1,440 Descending Salt Lake Center
01:54PM 43.7622 -114.4347 251° West 418 481 32,100 -1,440 Descending Salt Lake Center
01:55PM 43.7464 -114.5892 262° West 423 487 30,600 -1,620 Descending Salt Lake Center
01:56PM 43.7264 -114.7694 261° West 423 487 28,800 -1,680 Descending Salt Lake Center
01:57PM 43.7103 -114.9200 262° West 416 479 27,200 -2,040 Descending Salt Lake Center
01:58PM 43.6919 -115.0944 262° West 410 472 24,700 -2,400 Descending Salt Lake Center
01:59PM 43.6758 -115.2400 261° West 401 461 22,300 -2,520 Descending Salt Lake Center
02:00PM 43.6589 -115.4006 262° West 386 444 19,500 -2,640 Descending Salt Lake Center
02:01PM 43.5994 -115.5197 235° Southwest 365 420 16,900 -2,580 Descending Salt Lake Center
02:02PM 43.5364 -115.6306 232° Southwest 353 406 14,200 -2,580 Descending Salt Lake Center
02:03PM 43.4764 -115.7350 232° Southwest 335 386 11,600 -2,280 Descending Salt Lake Center
02:04PM 43.4308 -115.8336 238° Southwest 290 334 9,500 -2,220 Descending Salt Lake Center
02:05PM 43.4561 -115.9239 291° West 270 311 7,100 -1,500 Descending Salt Lake Center
02:06PM 43.4847 -116.0125 294° West 243 280 6,400 -720 Descending Salt Lake Center